Time;durP1;ratioP1;P1;durP2;ratioP2;P2;SDS_P1;SDS_P2;PMS_P1;PMS_P2;Temp;Humidity;BMP_temperature;BMP_pressure;BME280_temperature;BME280_humidity;BME280_pressure;Samples;Min_cycle;Max_cycle;Signal;HPM_P1;HPM_P2
2024/02/23 00:00:28;;;;;;;0.10;0.10;;;5.80;99.90;;;;;;5079770;28;20035;-79
2024/02/23 00:02:56;;;;;;;0.10;0.10;;;5.60;99.90;;;;;;5076405;28;20472;-78
2024/02/23 00:05:22;;;;;;;0.10;0.10;;;5.50;99.90;;;;;;5073838;28;20042;-78
2024/02/23 00:07:47;;;;;;;0.47;0.47;;;5.40;99.90;;;;;;5083020;28;20028;-78
2024/02/23 00:10:13;;;;;;;0.10;0.10;;;5.20;99.90;;;;;;5071150;28;20032;-79
2024/02/23 00:12:39;;;;;;;0.10;0.10;;;5.20;99.90;;;;;;5080763;28;20946;-80
2024/02/23 00:15:05;;;;;;;0.10;0.10;;;5.10;99.90;;;;;;5080431;28;20066;-80
2024/02/23 00:17:31;;;;;;;0.10;0.10;;;5.10;99.90;;;;;;5077631;28;20502;-80
2024/02/23 00:19:56;;;;;;;0.10;0.10;;;5.10;99.90;;;;;;5082329;28;20027;-80
2024/02/23 00:22:22;;;;;;;0.15;0.15;;;5.10;99.90;;;;;;5075769;28;20093;-80
2024/02/23 00:24:48;;;;;;;0.10;0.10;;;5.20;99.90;;;;;;5085724;28;20147;-80
2024/02/23 00:27:13;;;;;;;2.10;1.55;;;5.20;99.90;;;;;;5073384;28;20047;-80
2024/02/23 00:29:40;;;;;;;0.10;0.10;;;5.20;99.90;;;;;;5075955;28;20039;-80
2024/02/23 00:32:06;;;;;;;2.85;2.70;;;5.10;99.90;;;;;;5074300;28;20031;-80
2024/02/23 00:34:32;;;;;;;0.10;0.10;;;5.00;99.90;;;;;;5076329;28;20448;-80
2024/02/23 00:36:58;;;;;;;0.10;0.10;;;5.00;99.90;;;;;;5074897;28;20286;-80
2024/02/23 00:39:23;;;;;;;0.10;0.10;;;5.10;99.90;;;;;;5078259;28;20029;-79
2024/02/23 00:41:49;;;;;;;0.00;0.00;;;5.00;99.90;;;;;;5077785;28;20049;-81
2024/02/23 00:44:15;;;;;;;0.10;0.10;;;4.90;99.90;;;;;;5074968;28;20419;-81
2024/02/23 00:46:40;;;;;;;0.10;0.10;;;4.90;99.90;;;;;;5080094;28;20032;-80
2024/02/23 00:49:06;;;;;;;0.10;0.10;;;4.90;99.90;;;;;;5080531;28;20036;-80
2024/02/23 00:51:32;;;;;;;0.10;0.10;;;4.80;99.90;;;;;;5087099;28;20047;-80
2024/02/23 00:53:58;;;;;;;0.00;0.00;;;4.80;99.90;;;;;;5084633;28;20569;-80
2024/02/23 00:56:23;;;;;;;0.03;0.03;;;4.70;99.90;;;;;;5082174;28;20733;-81
2024/02/23 00:58:49;;;;;;;0.10;0.10;;;4.60;99.90;;;;;;5081634;28;20075;-80
2024/02/23 01:01:15;;;;;;;0.10;0.10;;;4.60;99.90;;;;;;5081817;28;20034;-80
2024/02/23 01:03:40;;;;;;;0.85;0.85;;;4.60;99.90;;;;;;5074644;28;20427;-79
2024/02/23 01:06:06;;;;;;;0.32;0.32;;;4.60;99.90;;;;;;5079476;28;20081;-79
2024/02/23 01:08:32;;;;;;;0.10;0.10;;;4.50;99.90;;;;;;5083626;28;20038;-79
2024/02/23 01:10:57;;;;;;;0.10;0.10;;;4.50;99.90;;;;;;5072857;28;20032;-79
2024/02/23 01:13:23;;;;;;;1.48;0.45;;;4.50;99.90;;;;;;5078595;28;20099;-79
2024/02/23 01:15:49;;;;;;;0.10;0.10;;;4.50;99.90;;;;;;5082850;28;20039;-79
2024/02/23 01:18:14;;;;;;;0.10;0.10;;;4.50;99.90;;;;;;5079008;28;20036;-79
2024/02/23 01:20:40;;;;;;;0.10;0.10;;;4.40;99.90;;;;;;5082176;28;20495;-79
2024/02/23 01:23:06;;;;;;;0.03;0.03;;;4.40;99.90;;;;;;5080851;28;20040;-78
2024/02/23 01:25:31;;;;;;;0.10;0.10;;;4.50;99.90;;;;;;5074862;28;20127;-79
2024/02/23 01:27:57;;;;;;;0.10;0.10;;;4.40;99.90;;;;;;5081207;28;20028;-79
2024/02/23 01:30:22;;;;;;;0.10;0.10;;;4.40;99.90;;;;;;5081793;28;20567;-79
2024/02/23 01:32:50;;;;;;;0.10;0.10;;;4.40;99.90;;;;;;5081176;28;20957;-80
2024/02/23 01:35:16;;;;;;;0.10;0.10;;;4.40;99.90;;;;;;5079998;28;20032;-79
2024/02/23 01:37:42;;;;;;;0.10;0.10;;;4.30;99.90;;;;;;5080324;28;20053;-79
2024/02/23 01:40:08;;;;;;;0.10;0.10;;;4.50;99.90;;;;;;5075224;28;20102;-79
2024/02/23 01:42:33;;;;;;;0.00;0.00;;;4.70;99.90;;;;;;5073502;28;20101;-80
2024/02/23 01:45:00;;;;;;;0.05;0.05;;;4.70;99.90;;;;;;5079286;28;20021;-79
2024/02/23 01:47:27;;;;;;;0.00;0.00;;;4.60;99.90;;;;;;5084372;28;20119;-80
2024/02/23 01:49:54;;;;;;;0.10;0.10;;;4.60;99.90;;;;;;5084712;28;20575;-79
2024/02/23 01:52:20;;;;;;;;;;;4.70;99.90;;;;;;5082239;28;20062;-79
2024/02/23 01:54:46;;;;;;;0.10;0.10;;;4.90;99.90;;;;;;5086247;28;19923;-79
2024/02/23 01:57:12;;;;;;;0.70;0.70;;;4.80;99.90;;;;;;5082911;28;20040;-79
2024/02/23 01:59:38;;;;;;;0.10;0.10;;;4.70;99.90;;;;;;5085191;28;20036;-79
2024/02/23 02:02:04;;;;;;;0.10;0.10;;;4.70;99.90;;;;;;5086007;28;20089;-80
2024/02/23 02:04:30;;;;;;;0.00;0.00;;;4.80;99.90;;;;;;5081791;28;20039;-80
2024/02/23 02:07:00;;;;;;;0.00;0.00;;;5.00;99.90;;;;;;5077659;28;20448;-81
2024/02/23 02:09:26;;;;;;;0.00;0.00;;;5.10;99.90;;;;;;5076891;28;20039;-80
2024/02/23 02:11:52;;;;;;;0.10;0.10;;;5.20;99.90;;;;;;5076075;28;20032;-78
2024/02/23 02:14:18;;;;;;;0.10;0.10;;;5.20;99.90;;;;;;5079776;28;20700;-78
2024/02/23 02:16:44;;;;;;;0.10;0.10;;;5.30;99.90;;;;;;5079181;28;21284;-78
2024/02/23 02:19:14;;;;;;;0.10;0.10;;;5.30;99.90;;;;;;5077040;28;20032;-79
2024/02/23 02:21:41;;;;;;;0.00;0.00;;;5.40;99.90;;;;;;5084778;28;20032;-79
2024/02/23 02:24:07;;;;;;;0.10;0.10;;;5.40;99.90;;;;;;5079578;28;20107;-79
2024/02/23 02:26:33;;;;;;;0.10;0.10;;;5.40;99.90;;;;;;5083266;28;20132;-79
2024/02/23 02:28:59;;;;;;;0.10;0.10;;;5.60;99.90;;;;;;5074640;28;20035;-78
2024/02/23 02:31:24;;;;;;;0.10;0.10;;;5.60;99.90;;;;;;5073245;28;20054;-79
2024/02/23 02:33:50;;;;;;;0.10;0.10;;;5.50;99.90;;;;;;5076966;28;20533;-79
2024/02/23 02:36:16;;;;;;;0.10;0.10;;;5.50;99.90;;;;;;5076578;28;20567;-80
2024/02/23 02:38:41;;;;;;;0.10;0.10;;;5.70;99.90;;;;;;5088296;28;20032;-80
2024/02/23 02:41:08;;;;;;;0.10;0.10;;;5.60;99.90;;;;;;5089139;28;20108;-80
2024/02/23 02:43:34;;;;;;;0.10;0.10;;;5.60;99.90;;;;;;5084124;28;20129;-79
2024/02/23 02:45:59;;;;;;;0.10;0.10;;;5.60;99.90;;;;;;5087001;28;20081;-79
2024/02/23 02:48:25;;;;;;;0.10;0.10;;;5.60;99.90;;;;;;5084276;28;20035;-79
2024/02/23 02:50:52;;;;;;;0.10;0.10;;;5.60;99.90;;;;;;5083846;28;20032;-78
2024/02/23 02:53:18;;;;;;;0.20;0.20;;;5.70;99.90;;;;;;5082295;28;20059;-79
2024/02/23 02:55:44;;;;;;;0.10;0.10;;;5.50;99.90;;;;;;5080695;28;20031;-78
2024/02/23 02:58:12;;;;;;;0.10;0.10;;;5.30;99.90;;;;;;5086558;28;20040;-78
2024/02/23 03:00:38;;;;;;;0.10;0.10;;;5.30;99.90;;;;;;5090266;28;20039;-78
2024/02/23 03:03:04;;;;;;;0.10;0.10;;;5.40;99.90;;;;;;5088190;28;20039;-78
2024/02/23 03:05:30;;;;;;;0.10;0.10;;;5.60;99.90;;;;;;5080145;28;20032;-78
2024/02/23 03:07:55;;;;;;;0.03;0.03;;;5.60;99.90;;;;;;5086800;28;20035;-78
2024/02/23 03:10:21;;;;;;;0.10;0.10;;;5.60;99.90;;;;;;5081871;28;20031;-79
2024/02/23 03:12:47;;;;;;;0.08;0.08;;;5.50;99.90;;;;;;5078207;28;20024;-78
2024/02/23 03:15:13;;;;;;;0.10;0.10;;;5.50;99.90;;;;;;5078292;28;20034;-78
2024/02/23 03:17:38;;;;;;;0.10;0.10;;;5.50;99.90;;;;;;5088737;28;20032;-78
2024/02/23 03:20:05;;;;;;;0.10;0.10;;;5.40;99.90;;;;;;5080851;28;20043;-78
2024/02/23 03:22:31;;;;;;;0.10;0.10;;;5.40;99.90;;;;;;5085389;28;20055;-78
2024/02/23 03:24:57;;;;;;;0.10;0.10;;;5.50;99.90;;;;;;5084648;28;20497;-78
2024/02/23 03:27:29;;;;;;;0.10;0.10;;;5.40;99.90;;;;;;5084485;28;20040;-78
2024/02/23 03:29:54;;;;;;;0.10;0.10;;;5.30;99.90;;;;;;5079990;28;20041;-78
2024/02/23 03:32:20;;;;;;;0.03;0.03;;;5.20;99.90;;;;;;5081156;28;20105;-77
2024/02/23 03:34:46;;;;;;;0.10;0.10;;;5.20;99.90;;;;;;5080326;28;20032;-78
2024/02/23 03:37:11;;;;;;;0.10;0.10;;;5.20;99.90;;;;;;5086410;28;20113;-80
2024/02/23 03:39:38;;;;;;;0.10;0.10;;;5.10;99.90;;;;;;5076847;28;20035;-79
2024/02/23 03:42:04;;;;;;;0.10;0.10;;;5.20;99.90;;;;;;5071535;28;20037;-79
2024/02/23 03:44:31;;;;;;;0.10;0.10;;;5.20;99.90;;;;;;5079457;28;20039;-79
2024/02/23 03:46:56;;;;;;;0.10;0.10;;;5.20;99.90;;;;;;5077529;28;20484;-78
2024/02/23 03:49:22;;;;;;;0.10;0.10;;;5.30;99.90;;;;;;5083496;28;20825;-78
2024/02/23 03:51:48;;;;;;;0.10;0.10;;;5.40;99.90;;;;;;5078138;28;20091;-80
2024/02/23 03:54:13;;;;;;;0.10;0.10;;;5.30;99.90;;;;;;5081910;28;20024;-80
2024/02/23 03:56:42;;;;;;;0.10;0.10;;;5.30;99.90;;;;;;5081973;28;20024;-80
2024/02/23 03:59:11;;;;;;;0.10;0.10;;;5.40;99.90;;;;;;5081748;28;20067;-79
2024/02/23 04:01:39;;;;;;;0.10;0.10;;;5.40;99.90;;;;;;5082945;28;20172;-80
2024/02/23 04:04:05;;;;;;;0.10;0.10;;;5.50;99.90;;;;;;5096122;28;20059;-79
2024/02/23 04:06:31;;;;;;;0.10;0.10;;;5.50;99.90;;;;;;5080453;28;20023;-79
2024/02/23 04:08:56;;;;;;;0.10;0.10;;;5.50;99.90;;;;;;5083997;28;20027;-79
2024/02/23 04:11:22;;;;;;;0.10;0.10;;;5.50;99.90;;;;;;5074792;28;20040;-79
2024/02/23 04:13:48;;;;;;;0.10;0.10;;;5.50;99.90;;;;;;5074120;28;20031;-79
2024/02/23 04:16:13;;;;;;;0.10;0.10;;;5.60;99.90;;;;;;5079079;28;20067;-79
2024/02/23 04:18:39;;;;;;;0.10;0.10;;;5.50;99.90;;;;;;5078983;28;20029;-78
2024/02/23 04:21:04;;;;;;;0.10;0.10;;;5.50;99.90;;;;;;5077546;28;20028;-78
2024/02/23 04:23:30;;;;;;;0.10;0.10;;;5.20;99.90;;;;;;5078278;28;20020;-78
2024/02/23 04:25:56;;;;;;;0.10;0.10;;;5.10;99.90;;;;;;5085081;28;20031;-78
2024/02/23 04:28:22;;;;;;;0.10;0.10;;;5.10;99.90;;;;;;5076739;28;20039;-78
2024/02/23 04:30:48;;;;;;;0.10;0.10;;;5.00;99.90;;;;;;5075352;28;20738;-78
2024/02/23 04:33:14;;;;;;;0.10;0.10;;;4.90;99.90;;;;;;5070794;28;20046;-79
2024/02/23 04:35:39;;;;;;;0.22;0.22;;;4.90;99.90;;;;;;5072691;28;20462;-79
2024/02/23 04:38:05;;;;;;;0.10;0.10;;;5.00;99.90;;;;;;5084526;28;20047;-79
2024/02/23 04:40:31;;;;;;;0.10;0.10;;;5.10;99.90;;;;;;5080986;28;20051;-78
2024/02/23 04:42:56;;;;;;;0.10;0.10;;;5.30;99.90;;;;;;5087272;28;20031;-78
2024/02/23 04:45:22;;;;;;;0.10;0.10;;;5.10;99.90;;;;;;5086279;28;20031;-78
2024/02/23 04:47:48;;;;;;;0.10;0.10;;;5.30;99.90;;;;;;5086357;28;20024;-77
2024/02/23 04:50:14;;;;;;;0.10;0.10;;;5.30;99.90;;;;;;5084807;28;20166;-76
2024/02/23 04:52:40;;;;;;;0.10;0.10;;;5.30;99.90;;;;;;5091300;28;20016;-77
2024/02/23 04:55:06;;;;;;;0.10;0.10;;;5.30;99.90;;;;;;5078897;28;20091;-77
2024/02/23 04:57:32;;;;;;;0.10;0.10;;;5.40;99.90;;;;;;5079712;28;20537;-78
2024/02/23 04:59:57;;;;;;;0.00;0.00;;;5.30;99.90;;;;;;5084561;28;20028;-77
2024/02/23 05:02:23;;;;;;;0.10;0.10;;;5.20;99.90;;;;;;5086647;28;20130;-78
2024/02/23 05:04:49;;;;;;;0.10;0.10;;;5.30;99.90;;;;;;5080129;28;20047;-78
2024/02/23 05:07:15;;;;;;;0.10;0.10;;;5.40;99.90;;;;;;5087217;28;20058;-79
2024/02/23 05:09:40;;;;;;;0.10;0.10;;;5.30;99.90;;;;;;5075591;28;20039;-79
2024/02/23 05:12:08;;;;;;;0.10;0.10;;;5.20;99.90;;;;;;5077395;28;20021;-79
2024/02/23 05:14:33;;;;;;;0.10;0.10;;;5.30;99.90;;;;;;5070742;28;20570;-79
2024/02/23 05:16:59;;;;;;;0.10;0.10;;;5.30;99.90;;;;;;5074348;28;20475;-77
2024/02/23 05:19:24;;;;;;;0.10;0.10;;;5.30;99.90;;;;;;5079724;28;20042;-77
2024/02/23 05:21:50;;;;;;;0.10;0.10;;;5.10;99.90;;;;;;5073843;28;20054;-77
2024/02/23 05:24:16;;;;;;;0.10;0.10;;;5.20;99.90;;;;;;5074932;28;20036;-76
2024/02/23 05:26:44;;;;;;;0.10;0.10;;;5.30;99.90;;;;;;5069421;28;20032;-77
2024/02/23 05:29:12;;;;;;;0.10;0.10;;;5.30;99.90;;;;;;5067277;28;20031;-77
2024/02/23 05:31:46;;;;;;;0.10;0.10;;;5.40;99.90;;;;;;5075640;28;20019;-77
2024/02/23 05:34:11;;;;;;;0.10;0.10;;;5.50;99.90;;;;;;5071575;28;20074;-77
2024/02/23 05:36:37;;;;;;;0.10;0.10;;;5.40;99.90;;;;;;5075662;28;20032;-79
2024/02/23 05:39:03;;;;;;;0.10;0.10;;;5.30;99.90;;;;;;5067933;28;20059;-79
2024/02/23 05:41:28;;;;;;;0.10;0.10;;;5.30;99.90;;;;;;5077401;28;20035;-76
2024/02/23 05:43:54;;;;;;;0.10;0.10;;;5.30;99.90;;;;;;5079706;28;20130;-79
2024/02/23 05:46:21;;;;;;;0.03;0.03;;;5.40;99.90;;;;;;5082341;28;20028;-80
2024/02/23 05:48:46;;;;;;;0.47;0.47;;;5.40;99.90;;;;;;5080814;28;20029;-79
2024/02/23 05:51:12;;;;;;;0.10;0.10;;;5.40;99.90;;;;;;5083198;28;20436;-79
2024/02/23 05:53:38;;;;;;;0.10;0.10;;;5.40;99.90;;;;;;5078550;28;20066;-80
2024/02/23 05:56:06;;;;;;;0.10;0.10;;;5.40;99.90;;;;;;5094292;28;20020;-84
2024/02/23 05:58:32;;;;;;;0.10;0.10;;;5.40;99.90;;;;;;5089467;28;20080;-82
2024/02/23 06:00:57;;;;;;;0.10;0.10;;;5.30;99.90;;;;;;5093366;28;20416;-81
2024/02/23 06:03:23;;;;;;;0.10;0.10;;;5.40;99.90;;;;;;5076989;28;20762;-83
2024/02/23 06:05:49;;;;;;;0.13;0.13;;;5.30;99.90;;;;;;5082432;28;20039;-81
2024/02/23 06:08:14;;;;;;;0.10;0.10;;;5.20;99.90;;;;;;5075894;28;20036;-79
2024/02/23 06:10:42;;;;;;;1.95;1.75;;;5.30;99.90;;;;;;5080258;28;20020;-82
2024/02/23 06:13:08;;;;;;;0.10;0.10;;;5.20;99.90;;;;;;5078055;28;20023;-82
2024/02/23 06:15:34;;;;;;;0.10;0.10;;;5.30;99.90;;;;;;5083530;28;20016;-84
2024/02/23 06:17:59;;;;;;;0.10;0.10;;;5.20;99.90;;;;;;5070587;28;20078;-82
2024/02/23 06:20:25;;;;;;;0.10;0.10;;;5.40;99.90;;;;;;5080673;28;20016;-80
2024/02/23 06:22:51;;;;;;;0.10;0.10;;;5.20;99.90;;;;;;5072637;28;20032;-81
2024/02/23 06:25:16;;;;;;;0.13;0.13;;;5.30;99.90;;;;;;5078217;28;20028;-83
2024/02/23 06:27:42;;;;;;;0.10;0.10;;;5.30;99.90;;;;;;5078877;28;20113;-82
2024/02/23 06:30:08;;;;;;;0.10;0.10;;;5.30;99.90;;;;;;5078926;28;20035;-82
2024/02/23 06:32:34;;;;;;;0.10;0.10;;;5.40;99.90;;;;;;5073430;28;20028;-84
2024/02/23 06:35:00;;;;;;;0.10;0.10;;;5.40;99.90;;;;;;5075677;28;20137;-80
2024/02/23 06:37:25;;;;;;;0.10;0.10;;;5.30;99.90;;;;;;5075786;28;20027;-81
2024/02/23 06:39:54;;;;;;;0.10;0.10;;;5.40;99.90;;;;;;5081794;28;20040;-79
2024/02/23 06:42:20;;;;;;;0.10;0.10;;;5.30;99.90;;;;;;5075739;28;20048;-79
2024/02/23 06:44:47;;;;;;;0.80;0.80;;;5.30;99.90;;;;;;5079932;28;20040;-79
2024/02/23 06:47:12;;;;;;;0.10;0.10;;;5.20;99.90;;;;;;5078525;28;20044;-79
2024/02/23 06:49:43;;;;;;;0.10;0.10;;;5.20;99.90;;;;;;5088886;28;20792;-81
2024/02/23 06:52:08;;;;;;;0.10;0.10;;;5.30;99.90;;;;;;5088615;28;20143;-80
2024/02/23 06:54:34;;;;;;;0.00;0.00;;;5.30;99.90;;;;;;5081301;28;20108;-80
2024/02/23 06:57:00;;;;;;;0.10;0.10;;;5.30;99.90;;;;;;5072864;28;20048;-79
2024/02/23 06:59:26;;;;;;;0.10;0.10;;;5.20;99.90;;;;;;5071099;28;20094;-82
2024/02/23 07:01:52;;;;;;;0.10;0.10;;;5.30;99.90;;;;;;5068595;28;20032;-82
2024/02/23 07:04:18;;;;;;;0.10;0.10;;;5.30;99.90;;;;;;5069058;28;20257;-81
2024/02/23 07:06:44;;;;;;;0.10;0.10;;;5.40;99.90;;;;;;5070229;28;20033;-82
2024/02/23 07:09:11;;;;;;;0.10;0.10;;;5.40;99.90;;;;;;5079444;28;20032;-81
2024/02/23 07:11:37;;;;;;;0.10;0.10;;;5.30;99.90;;;;;;5081826;28;20020;-79
2024/02/23 07:14:03;;;;;;;0.10;0.10;;;5.40;99.90;;;;;;5074460;28;20073;-79
2024/02/23 07:16:29;;;;;;;0.10;0.10;;;5.30;99.90;;;;;;5079320;28;20024;-79
2024/02/23 07:18:56;;;;;;;0.10;0.10;;;5.30;99.90;;;;;;5074075;28;20081;-83
2024/02/23 07:21:22;;;;;;;0.20;0.20;;;5.20;99.90;;;;;;5087220;28;20028;-79
2024/02/23 07:23:48;;;;;;;0.10;0.10;;;5.20;99.90;;;;;;5083893;28;20039;-79
2024/02/23 07:26:14;;;;;;;0.10;0.10;;;5.10;99.90;;;;;;5083778;28;20282;-79
2024/02/23 07:28:39;;;;;;;0.00;0.00;;;5.10;99.90;;;;;;5074197;28;20021;-79
2024/02/23 07:31:05;;;;;;;0.10;0.10;;;5.00;99.90;;;;;;5074918;28;20507;-78
2024/02/23 07:33:31;;;;;;;0.10;0.10;;;5.10;99.90;;;;;;5073056;28;20063;-79
2024/02/23 07:35:56;;;;;;;0.22;0.22;;;5.20;99.90;;;;;;5069553;28;20043;-79
2024/02/23 07:38:22;;;;;;;0.10;0.10;;;5.00;99.90;;;;;;5069741;28;20036;-79
2024/02/23 07:40:48;;;;;;;0.10;0.10;;;5.00;99.90;;;;;;5071084;28;20036;-78
2024/02/23 07:43:13;;;;;;;0.10;0.10;;;5.30;99.90;;;;;;5073481;28;20096;-79
2024/02/23 07:45:39;;;;;;;0.10;0.10;;;5.30;99.90;;;;;;5067160;28;20770;-78
2024/02/23 07:48:05;;;;;;;0.10;0.10;;;5.30;99.90;;;;;;5071186;28;20029;-79
2024/02/23 07:50:31;;;;;;;0.10;0.10;;;5.40;99.90;;;;;;5067713;28;20033;-79
2024/02/23 07:52:56;;;;;;;0.10;0.10;;;5.30;99.90;;;;;;5068797;28;20096;-79
2024/02/23 07:55:22;;;;;;;0.10;0.10;;;5.40;99.90;;;;;;5081994;28;20127;-78
2024/02/23 07:57:48;;;;;;;0.10;0.10;;;5.40;99.90;;;;;;5073527;28;20189;-79
2024/02/23 08:00:14;;;;;;;0.10;0.10;;;5.50;99.90;;;;;;5073917;28;20078;-79
2024/02/23 08:02:39;;;;;;;0.10;0.10;;;5.60;99.90;;;;;;5067574;28;20078;-79
2024/02/23 08:05:07;;;;;;;0.10;0.10;;;5.60;99.90;;;;;;5068252;28;20103;-78
2024/02/23 08:07:32;;;;;;;0.10;0.10;;;5.50;99.90;;;;;;5066286;28;20032;-79
2024/02/23 08:09:58;;;;;;;0.10;0.10;;;5.50;99.90;;;;;;5075976;28;20085;-79
2024/02/23 08:12:24;;;;;;;0.05;0.05;;;5.70;99.90;;;;;;5083765;28;20028;-79
2024/02/23 08:14:53;;;;;;;0.10;0.10;;;5.70;99.90;;;;;;5082707;28;20017;-79
2024/02/23 08:17:19;;;;;;;0.10;0.10;;;5.70;99.90;;;;;;5085150;28;20857;-79
2024/02/23 08:19:44;;;;;;;0.52;0.52;;;5.70;99.90;;;;;;5079795;28;20139;-79
2024/02/23 08:22:10;;;;;;;0.03;0.03;;;5.60;99.90;;;;;;5086828;28;20138;-79
2024/02/23 08:24:36;;;;;;;0.10;0.10;;;5.60;99.90;;;;;;5072817;28;20028;-79
2024/02/23 08:27:02;;;;;;;0.05;0.05;;;5.60;99.90;;;;;;5075430;28;20040;-79
2024/02/23 08:29:28;;;;;;;0.10;0.10;;;5.50;99.90;;;;;;5073142;28;20792;-80
2024/02/23 08:31:54;;;;;;;0.10;0.10;;;5.40;99.90;;;;;;5077518;28;20311;-80
2024/02/23 08:34:19;;;;;;;0.10;0.10;;;5.50;99.90;;;;;;5071239;28;20027;-79
2024/02/23 08:36:45;;;;;;;0.32;0.32;;;5.70;99.90;;;;;;5071579;28;20040;-79
2024/02/23 08:39:11;;;;;;;0.10;0.10;;;5.80;99.90;;;;;;5081052;28;20021;-80
2024/02/23 08:41:36;;;;;;;0.10;0.10;;;5.80;99.90;;;;;;5087472;28;20495;-80
2024/02/23 08:44:02;;;;;;;0.10;0.10;;;5.90;99.90;;;;;;5087008;28;20020;-81
2024/02/23 08:46:28;;;;;;;0.10;0.10;;;6.00;99.90;;;;;;5079027;28;20028;-81
2024/02/23 08:48:54;;;;;;;0.10;0.10;;;6.00;99.90;;;;;;5074346;28;20536;-80
2024/02/23 08:51:19;;;;;;;0.10;0.10;;;6.00;99.90;;;;;;5076235;28;20023;-80
2024/02/23 08:53:45;;;;;;;0.10;0.10;;;5.80;99.90;;;;;;5077148;28;20058;-79
2024/02/23 08:56:12;;;;;;;0.10;0.10;;;5.90;99.90;;;;;;5079580;28;20020;-79
2024/02/23 08:58:38;;;;;;;0.10;0.10;;;5.90;99.90;;;;;;5079507;28;20048;-80
2024/02/23 09:01:04;;;;;;;0.10;0.10;;;5.80;99.90;;;;;;5076764;28;20566;-79
2024/02/23 09:03:31;;;;;;;0.10;0.10;;;6.10;99.90;;;;;;5081818;28;20139;-80
2024/02/23 09:05:57;;;;;;;0.10;0.10;;;6.00;99.90;;;;;;5078723;28;20820;-80
2024/02/23 09:08:23;;;;;;;0.10;0.10;;;5.90;99.90;;;;;;5071182;28;20103;-79
2024/02/23 09:10:48;;;;;;;0.00;0.00;;;5.80;99.90;;;;;;5080352;28;20773;-79
2024/02/23 09:13:15;;;;;;;0.10;0.10;;;5.70;99.90;;;;;;5078904;28;20068;-79
2024/02/23 09:15:42;;;;;;;0.10;0.10;;;5.90;99.90;;;;;;5081200;28;20020;-80
2024/02/23 09:18:07;;;;;;;;;;;6.20;99.90;;;;;;5081356;28;20051;-80
2024/02/23 09:20:33;;;;;;;0.10;0.10;;;5.90;99.90;;;;;;5084420;28;19944;-79
2024/02/23 09:22:59;;;;;;;0.10;0.10;;;5.70;99.90;;;;;;5077528;28;20025;-80
2024/02/23 09:25:24;;;;;;;0.10;0.10;;;5.90;99.90;;;;;;5068727;28;20527;-79
2024/02/23 09:27:50;;;;;;;0.10;0.10;;;6.20;99.90;;;;;;5078908;28;20653;-79
2024/02/23 09:30:16;;;;;;;0.08;0.08;;;6.40;99.90;;;;;;5080376;28;20020;-79
2024/02/23 09:32:42;;;;;;;0.10;0.10;;;7.10;99.90;;;;;;5080485;28;20059;-80
2024/02/23 09:35:08;;;;;;;0.10;0.10;;;6.90;99.90;;;;;;5068344;28;20492;-80
2024/02/23 09:37:33;;;;;;;0.10;0.10;;;6.40;99.90;;;;;;5071096;28;20086;-79
2024/02/23 09:39:59;;;;;;;0.10;0.10;;;6.60;99.90;;;;;;5074112;28;20106;-80
2024/02/23 09:42:28;;;;;;;0.10;0.10;;;6.80;99.90;;;;;;5077211;28;20031;-80
2024/02/23 09:45:00;;;;;;;0.10;0.10;;;6.80;99.90;;;;;;5079953;28;20063;-80
2024/02/23 09:47:28;;;;;;;0.10;0.10;;;6.60;99.90;;;;;;5075564;28;20028;-79
2024/02/23 09:49:54;;;;;;;0.10;0.10;;;7.00;99.90;;;;;;5075923;28;20054;-79
2024/02/23 09:52:21;;;;;;;0.10;0.10;;;7.10;99.90;;;;;;5077405;28;20750;-79
2024/02/23 09:54:46;;;;;;;;;;;6.70;99.90;;;;;;5083337;28;20063;-79
2024/02/23 09:57:14;;;;;;;0.10;0.10;;;6.40;99.90;;;;;;5077938;28;19912;-79
2024/02/23 09:59:40;;;;;;;0.10;0.10;;;5.90;99.90;;;;;;5074682;28;20043;-79
2024/02/23 10:02:12;;;;;;;0.10;0.10;;;6.10;99.90;;;;;;5082395;28;20559;-79
2024/02/23 10:04:43;;;;;;;0.10;0.10;;;6.30;99.90;;;;;;5078864;28;20032;-79
2024/02/23 10:07:09;;;;;;;0.10;0.10;;;6.00;99.90;;;;;;5069965;28;20119;-79
2024/02/23 10:09:36;;;;;;;0.10;0.10;;;6.20;99.90;;;;;;5080270;28;20192;-79
2024/02/23 10:12:05;;;;;;;0.10;0.10;;;6.30;99.90;;;;;;5078284;28;20024;-80
2024/02/23 10:14:31;;;;;;;0.10;0.10;;;6.60;99.90;;;;;;5081864;28;20059;-79
2024/02/23 10:16:57;;;;;;;0.10;0.10;;;6.80;99.90;;;;;;5080776;28;20081;-79
2024/02/23 10:19:28;;;;;;;0.10;0.10;;;6.90;99.90;;;;;;5077933;28;20059;-80
2024/02/23 10:21:54;;;;;;;0.10;0.10;;;6.60;99.90;;;;;;5081486;28;20113;-79
2024/02/23 10:24:20;;;;;;;0.10;0.10;;;6.40;99.90;;;;;;5074955;28;20066;-80
2024/02/23 10:26:46;;;;;;;0.10;0.10;;;6.00;99.90;;;;;;5077982;28;20029;-80
2024/02/23 10:29:12;;;;;;;0.10;0.10;;;5.90;99.90;;;;;;5086003;28;20392;-80
2024/02/23 10:31:39;;;;;;;0.10;0.10;;;5.90;99.90;;;;;;5090239;28;20047;-79
2024/02/23 10:34:09;;;;;;;;;;;5.80;99.90;;;;;;5077450;28;20036;-79
2024/02/23 10:36:40;;;;;;;0.10;0.10;;;5.70;99.90;;;;;;5069703;28;19918;-79
2024/02/23 10:39:07;;;;;;;0.10;0.10;;;6.10;99.90;;;;;;5080121;28;20024;-79
2024/02/23 10:41:37;;;;;;;0.10;0.10;;;6.10;99.90;;;;;;5074523;28;20507;-80
2024/02/23 10:44:04;;;;;;;0.10;0.10;;;6.40;99.90;;;;;;5078862;28;20032;-79
2024/02/23 10:46:32;;;;;;;0.10;0.10;;;6.20;99.90;;;;;;5089349;28;20074;-79
2024/02/23 10:49:01;;;;;;;0.10;0.10;;;6.40;99.90;;;;;;5076424;28;20835;-80
2024/02/23 10:51:28;;;;;;;0.10;0.10;;;6.30;99.90;;;;;;5087772;28;20502;-80
2024/02/23 10:53:54;;;;;;;0.10;0.10;;;6.70;99.90;;;;;;5080748;28;20025;-80
2024/02/23 10:56:22;;;;;;;0.10;0.10;;;7.30;99.90;;;;;;5081418;28;20040;-79
2024/02/23 10:58:48;;;;;;;0.10;0.10;;;7.90;99.90;;;;;;5077521;28;20113;-80
2024/02/23 11:01:14;;;;;;;0.10;0.10;;;8.90;99.90;;;;;;5079564;28;20036;-80
2024/02/23 11:03:42;;;;;;;0.10;0.10;;;9.40;99.90;;;;;;5087415;28;20027;-80
2024/02/23 11:06:08;;;;;;;0.20;0.20;;;9.60;99.90;;;;;;5071954;28;20036;-80
2024/02/23 11:08:36;;;;;;;0.10;0.10;;;9.60;99.90;;;;;;5078604;28;20028;-81
2024/02/23 11:11:09;;;;;;;0.20;0.20;;;9.10;99.90;;;;;;5080604;28;20035;-81
2024/02/23 11:13:38;;;;;;;0.20;0.20;;;8.40;99.90;;;;;;5080006;28;20828;-80
2024/02/23 11:16:05;;;;;;;0.10;0.10;;;8.50;99.90;;;;;;5080343;28;20027;-80
2024/02/23 11:18:34;;;;;;;0.10;0.10;;;8.10;99.90;;;;;;5081384;28;20056;-80
2024/02/23 11:21:07;;;;;;;0.10;0.10;;;7.60;99.90;;;;;;5083913;28;20108;-80
2024/02/23 11:23:48;;;;;;;0.10;0.10;;;7.60;99.90;;;;;;5077635;28;20024;-80
2024/02/23 11:26:14;;;;;;;0.10;0.10;;;7.50;99.90;;;;;;5072778;28;20047;-80
2024/02/23 11:28:55;;;;;;;0.10;0.10;;;7.40;99.90;;;;;;5083878;28;20047;-80
2024/02/23 11:31:25;;;;;;;0.10;0.10;;;7.60;99.90;;;;;;5077125;28;20780;-80
2024/02/23 11:33:55;;;;;;;0.10;0.10;;;7.80;99.90;;;;;;5082410;28;20031;-80
2024/02/23 11:36:33;;;;;;;0.10;0.10;;;7.70;99.90;;;;;;5069241;28;20032;-81
2024/02/23 11:39:00;;;;;;;0.10;0.10;;;7.80;99.90;;;;;;5073250;28;20028;-81
2024/02/23 11:41:28;;;;;;;0.10;0.10;;;7.60;99.90;;;;;;5076633;28;20039;-81
2024/02/23 11:43:56;;;;;;;0.10;0.10;;;7.70;99.90;;;;;;5070810;28;20029;-81
2024/02/23 11:46:22;;;;;;;0.28;0.28;;;8.00;99.90;;;;;;5079055;28;20029;-81
2024/02/23 11:48:53;;;;;;;0.10;0.10;;;8.10;99.90;;;;;;5080884;28;20032;-81
2024/02/23 11:51:24;;;;;;;0.10;0.10;;;8.50;99.90;;;;;;5075213;28;20043;-81
2024/02/23 11:53:50;;;;;;;0.10;0.10;;;8.00;99.70;;;;;;5072673;28;20051;-80
2024/02/23 11:56:16;;;;;;;0.10;0.10;;;7.60;99.60;;;;;;5079569;28;20035;-80
2024/02/23 11:58:42;;;;;;;0.10;0.10;;;7.40;99.90;;;;;;5075988;28;20062;-81
2024/02/23 12:01:08;;;;;;;0.10;0.10;;;7.90;99.90;;;;;;5075926;28;20028;-80
2024/02/23 12:03:34;;;;;;;0.00;0.00;;;8.80;99.90;;;;;;5073756;28;20025;-79
2024/02/23 12:06:00;;;;;;;;;;;9.00;99.90;;;;;;5076938;28;20119;-79
2024/02/23 12:08:27;;;;;;;0.10;0.10;;;9.10;99.30;;;;;;5076015;28;20003;-79
2024/02/23 12:10:59;;;;;;;0.03;0.03;;;8.80;98.60;;;;;;5084955;28;20053;-80
2024/02/23 12:13:26;;;;;;;0.10;0.10;;;8.40;99.20;;;;;;5074476;28;20113;-80
2024/02/23 12:15:52;;;;;;;;;;;7.90;99.20;;;;;;5085254;28;20020;-79
2024/02/23 12:18:23;;;;;;;0.10;0.10;;;7.80;99.60;;;;;;5079341;28;19915;-79
2024/02/23 12:20:49;;;;;;;0.10;0.10;;;7.50;99.90;;;;;;5083130;28;20028;-80
2024/02/23 12:23:15;;;;;;;0.10;0.10;;;7.70;99.80;;;;;;5076249;28;20598;-81
2024/02/23 12:25:56;;;;;;;0.10;0.10;;;7.90;99.50;;;;;;5070983;28;20024;-81
2024/02/23 12:28:23;;;;;;;1.67;1.58;;;8.20;99.80;;;;;;5069220;28;20032;-81
2024/02/23 12:31:03;;;;;;;0.10;0.10;;;8.40;99.60;;;;;;5085464;28;20125;-81
2024/02/23 12:33:32;;;;;;;0.10;0.10;;;8.40;99.90;;;;;;5078706;28;20029;-80
2024/02/23 12:35:58;;;;;;;0.10;0.10;;;8.10;99.20;;;;;;5070147;28;20039;-81
2024/02/23 12:38:25;;;;;;;0.10;0.10;;;8.00;99.90;;;;;;5072058;28;20025;-81
2024/02/23 12:40:51;;;;;;;0.10;0.10;;;8.10;99.90;;;;;;5073261;28;20031;-81
2024/02/23 12:43:18;;;;;;;0.10;0.10;;;7.90;99.90;;;;;;5076924;28;20056;-81
2024/02/23 12:45:45;;;;;;;0.10;0.10;;;7.50;99.90;;;;;;5081686;28;20274;-81
2024/02/23 12:48:11;;;;;;;0.10;0.10;;;7.20;99.90;;;;;;5075342;28;20036;-80
2024/02/23 12:50:36;;;;;;;0.10;0.10;;;7.20;99.90;;;;;;5085718;28;20028;-81
2024/02/23 12:53:03;;;;;;;1.50;1.50;;;6.80;99.90;;;;;;5080915;28;20034;-81